EmailTwitter


Observations de surface / États-Unis / KJFK (74486)

Régions: Québec | Canada | États-Unis | Europe | France | UK | Ailleurs
Station
Affichage
Infos & localisation pour KJFK (74486) | Aide pour décoder les METARs

Observations prises le 2020-04-04 à 16H51 UTC à NEW YORK/JF KENN, NY (KJFK)

Etat du ciel: partiellement nuageux.

Température: 13.0 Celsius

Point de rosée: 6.0 Celsius

Humidité relative: 62%

Vents: Nord-est à 13 km/h ou 7 noeuds.

Pression au niveau moyen de la mer: 101.65 kilopascals.

Calage altimétrique: 101.66 kilopascals ou 30.02 pouces de mercure.

Visibilité horizontale: 10.00 milles terrestres ou 16.00 kilomètres.

Hauteur du plafond: 914 mètres ( 3000 pieds ).

Observation METAR:

KJFK 041651Z 03007KT 10SM BKN030 BKN075 13/06 A3002 RMK AO2 SLP165 T01280061=